sensor_id;sensor_type;location;lat;lon;timestamp;temperature;humidity
78212;SHT31;67490;52.086;5.122;2023-07-29T00:00:46;23.30;62.85
78212;SHT31;67490;52.086;5.122;2023-07-29T00:03:31;23.28;63.15
78212;SHT31;67490;52.086;5.122;2023-07-29T00:06:16;23.28;63.29
78212;SHT31;67490;52.086;5.122;2023-07-29T00:09:00;23.37;63.24
78212;SHT31;67490;52.086;5.122;2023-07-29T00:11:45;23.42;63.15
78212;SHT31;67490;52.086;5.122;2023-07-29T00:14:29;23.40;63.14
78212;SHT31;67490;52.086;5.122;2023-07-29T00:17:15;23.46;63.17
78212;SHT31;67490;52.086;5.122;2023-07-29T00:19:59;23.53;63.13
78212;SHT31;67490;52.086;5.122;2023-07-29T00:22:44;23.57;63.10
78212;SHT31;67490;52.086;5.122;2023-07-29T00:25:28;23.63;62.90
78212;SHT31;67490;52.086;5.122;2023-07-29T00:28:13;23.55;62.87
78212;SHT31;67490;52.086;5.122;2023-07-29T00:30:57;23.46;63.15
78212;SHT31;67490;52.086;5.122;2023-07-29T00:33:43;23.43;63.52
78212;SHT31;67490;52.086;5.122;2023-07-29T00:36:27;23.40;63.55
78212;SHT31;67490;52.086;5.122;2023-07-29T00:39:11;23.43;63.79
78212;SHT31;67490;52.086;5.122;2023-07-29T00:41:56;23.43;63.60
78212;SHT31;67490;52.086;5.122;2023-07-29T00:44:40;23.40;63.72
78212;SHT31;67490;52.086;5.122;2023-07-29T00:47:25;23.40;63.67
78212;SHT31;67490;52.086;5.122;2023-07-29T00:50:13;23.37;63.84
78212;SHT31;67490;52.086;5.122;2023-07-29T00:52:57;23.40;63.91
78212;SHT31;67490;52.086;5.122;2023-07-29T00:55:42;23.33;64.22
78212;SHT31;67490;52.086;5.122;2023-07-29T00:58:27;23.27;64.45
78212;SHT31;67490;52.086;5.122;2023-07-29T01:01:12;23.23;64.64
78212;SHT31;67490;52.086;5.122;2023-07-29T01:03:57;23.22;64.81
78212;SHT31;67490;52.086;5.122;2023-07-29T01:06:53;23.17;64.99
78212;SHT31;67490;52.086;5.122;2023-07-29T01:09:50;22.93;65.66
78212;SHT31;67490;52.086;5.122;2023-07-29T01:12:44;22.72;66.49
78212;SHT31;67490;52.086;5.122;2023-07-29T01:15:36;22.73;66.58
78212;SHT31;67490;52.086;5.122;2023-07-29T01:18:27;22.76;66.56
78212;SHT31;67490;52.086;5.122;2023-07-29T01:21:14;22.61;67.16
78212;SHT31;67490;52.086;5.122;2023-07-29T01:24:02;22.62;67.10
78212;SHT31;67490;52.086;5.122;2023-07-29T01:26:46;22.55;67.20
78212;SHT31;67490;52.086;5.122;2023-07-29T01:29:30;22.56;67.32
78212;SHT31;67490;52.086;5.122;2023-07-29T01:32:19;22.64;67.10
78212;SHT31;67490;52.086;5.122;2023-07-29T01:35:14;22.55;67.47
78212;SHT31;67490;52.086;5.122;2023-07-29T01:38:05;22.49;67.53
78212;SHT31;67490;52.086;5.122;2023-07-29T01:40:53;22.52;67.64
78212;SHT31;67490;52.086;5.122;2023-07-29T01:43:38;22.52;67.73
78212;SHT31;67490;52.086;5.122;2023-07-29T01:46:26;22.55;67.52
78212;SHT31;67490;52.086;5.122;2023-07-29T01:49:10;22.54;67.77
78212;SHT31;67490;52.086;5.122;2023-07-29T01:51:55;22.51;67.83
78212;SHT31;67490;52.086;5.122;2023-07-29T01:54:39;22.51;67.85
78212;SHT31;67490;52.086;5.122;2023-07-29T01:57:25;22.41;68.20
78212;SHT31;67490;52.086;5.122;2023-07-29T02:00:10;22.45;68.19
78212;SHT31;67490;52.086;5.122;2023-07-29T02:02:54;22.44;68.01
78212;SHT31;67490;52.086;5.122;2023-07-29T02:05:38;22.37;68.09
78212;SHT31;67490;52.086;5.122;2023-07-29T02:08:23;22.40;67.93
78212;SHT31;67490;52.086;5.122;2023-07-29T02:11:07;22.40;67.74
78212;SHT31;67490;52.086;5.122;2023-07-29T02:13:53;22.51;66.79
78212;SHT31;67490;52.086;5.122;2023-07-29T02:16:38;22.44;66.77
78212;SHT31;67490;52.086;5.122;2023-07-29T02:19:23;22.37;67.01
78212;SHT31;67490;52.086;5.122;2023-07-29T02:22:07;22.37;66.58
78212;SHT31;67490;52.086;5.122;2023-07-29T02:24:51;22.22;66.97
78212;SHT31;67490;52.086;5.122;2023-07-29T02:27:36;22.11;66.98
78212;SHT31;67490;52.086;5.122;2023-07-29T02:30:22;22.04;67.04
78212;SHT31;67490;52.086;5.122;2023-07-29T02:33:06;22.13;66.77
78212;SHT31;67490;52.086;5.122;2023-07-29T02:35:50;22.16;66.51
78212;SHT31;67490;52.086;5.122;2023-07-29T02:38:34;22.11;66.49
78212;SHT31;67490;52.086;5.122;2023-07-29T02:41:18;22.08;66.52
78212;SHT31;67490;52.086;5.122;2023-07-29T02:44:03;22.06;66.35
78212;SHT31;67490;52.086;5.122;2023-07-29T02:46:49;22.03;65.75
78212;SHT31;67490;52.086;5.122;2023-07-29T02:49:33;21.94;65.79
78212;SHT31;67490;52.086;5.122;2023-07-29T02:52:17;21.98;66.11
78212;SHT31;67490;52.086;5.122;2023-07-29T02:55:03;22.07;65.47
78212;SHT31;67490;52.086;5.122;2023-07-29T02:57:47;22.03;65.43
78212;SHT31;67490;52.086;5.122;2023-07-29T03:00:31;22.10;65.13
78212;SHT31;67490;52.086;5.122;2023-07-29T03:03:17;22.07;65.19
78212;SHT31;67490;52.086;5.122;2023-07-29T03:06:05;22.11;64.84
78212;SHT31;67490;52.086;5.122;2023-07-29T03:08:49;22.07;65.01
78212;SHT31;67490;52.086;5.122;2023-07-29T03:11:34;22.08;64.78
78212;SHT31;67490;52.086;5.122;2023-07-29T03:14:18;22.07;64.79
78212;SHT31;67490;52.086;5.122;2023-07-29T03:17:03;22.10;64.44
78212;SHT31;67490;52.086;5.122;2023-07-29T03:19:50;22.14;64.55
78212;SHT31;67490;52.086;5.122;2023-07-29T03:22:34;22.08;64.61
78212;SHT31;67490;52.086;5.122;2023-07-29T03:25:19;22.07;64.59
78212;SHT31;67490;52.086;5.122;2023-07-29T03:28:03;22.13;64.23
78212;SHT31;67490;52.086;5.122;2023-07-29T03:30:47;22.06;64.06
78212;SHT31;67490;52.086;5.122;2023-07-29T03:33:32;22.06;64.27
78212;SHT31;67490;52.086;5.122;2023-07-29T03:36:17;22.03;64.43
78212;SHT31;67490;52.086;5.122;2023-07-29T03:39:03;21.97;64.49
78212;SHT31;67490;52.086;5.122;2023-07-29T03:41:48;22.03;64.48
78212;SHT31;67490;52.086;5.122;2023-07-29T03:44:32;21.98;64.41
78212;SHT31;67490;52.086;5.122;2023-07-29T03:47:17;21.96;64.36
78212;SHT31;67490;52.086;5.122;2023-07-29T03:50:02;22.01;64.17
78212;SHT31;67490;52.086;5.122;2023-07-29T03:52:47;21.83;64.55
78212;SHT31;67490;52.086;5.122;2023-07-29T03:55:32;21.83;64.68
78212;SHT31;67490;52.086;5.122;2023-07-29T03:58:16;21.97;64.05
78212;SHT31;67490;52.086;5.122;2023-07-29T04:01:01;21.93;64.14
78212;SHT31;67490;52.086;5.122;2023-07-29T04:03:45;21.93;63.93
78212;SHT31;67490;52.086;5.122;2023-07-29T04:06:33;21.83;64.22
78212;SHT31;67490;52.086;5.122;2023-07-29T04:09:19;21.94;63.99
78212;SHT31;67490;52.086;5.122;2023-07-29T04:12:04;21.83;64.41
78212;SHT31;67490;52.086;5.122;2023-07-29T04:14:49;21.80;64.39
78212;SHT31;67490;52.086;5.122;2023-07-29T04:17:33;21.79;64.53
78212;SHT31;67490;52.086;5.122;2023-07-29T04:20:17;21.72;64.64
78212;SHT31;67490;52.086;5.122;2023-07-29T04:23:01;21.59;65.10
78212;SHT31;67490;52.086;5.122;2023-07-29T04:25:47;21.48;65.13
78212;SHT31;67490;52.086;5.122;2023-07-29T04:28:31;21.55;65.07
78212;SHT31;67490;52.086;5.122;2023-07-29T04:31:16;21.49;65.04
78212;SHT31;67490;52.086;5.122;2023-07-29T04:34:00;21.35;65.38
78212;SHT31;67490;52.086;5.122;2023-07-29T04:36:44;21.25;65.65
78212;SHT31;67490;52.086;5.122;2023-07-29T04:39:29;21.27;65.81
78212;SHT31;67490;52.086;5.122;2023-07-29T04:42:14;21.27;65.75
78212;SHT31;67490;52.086;5.122;2023-07-29T04:44:59;21.39;65.66
78212;SHT31;67490;52.086;5.122;2023-07-29T04:47:43;21.42;65.36
78212;SHT31;67490;52.086;5.122;2023-07-29T04:50:27;21.43;65.47
78212;SHT31;67490;52.086;5.122;2023-07-29T04:53:11;21.50;65.41
78212;SHT31;67490;52.086;5.122;2023-07-29T04:55:56;21.43;65.66
78212;SHT31;67490;52.086;5.122;2023-07-29T04:58:41;21.41;65.86
78212;SHT31;67490;52.086;5.122;2023-07-29T05:01:26;21.32;66.04
78212;SHT31;67490;52.086;5.122;2023-07-29T05:04:10;21.32;66.20
78212;SHT31;67490;52.086;5.122;2023-07-29T05:06:55;21.24;66.55
78212;SHT31;67490;52.086;5.122;2023-07-29T05:09:39;21.29;66.44
78212;SHT31;67490;52.086;5.122;2023-07-29T05:12:23;21.21;66.71
78212;SHT31;67490;52.086;5.122;2023-07-29T05:15:10;21.25;66.88
78212;SHT31;67490;52.086;5.122;2023-07-29T05:17:54;21.28;66.61
78212;SHT31;67490;52.086;5.122;2023-07-29T05:20:38;21.25;66.67
78212;SHT31;67490;52.086;5.122;2023-07-29T05:23:23;21.17;67.42
78212;SHT31;67490;52.086;5.122;2023-07-29T05:26:07;21.34;66.80
78212;SHT31;67490;52.086;5.122;2023-07-29T05:28:51;21.39;66.67
78212;SHT31;67490;52.086;5.122;2023-07-29T05:31:37;21.42;66.52
78212;SHT31;67490;52.086;5.122;2023-07-29T05:34:21;21.45;66.59
78212;SHT31;67490;52.086;5.122;2023-07-29T05:37:06;21.41;66.73
78212;SHT31;67490;52.086;5.122;2023-07-29T05:39:50;21.45;66.62
78212;SHT31;67490;52.086;5.122;2023-07-29T05:42:34;21.49;66.58
78212;SHT31;67490;52.086;5.122;2023-07-29T05:45:19;21.63;66.42
78212;SHT31;67490;52.086;5.122;2023-07-29T05:48:05;21.75;66.08
78212;SHT31;67490;52.086;5.122;2023-07-29T05:50:49;21.83;65.99
78212;SHT31;67490;52.086;5.122;2023-07-29T05:53:34;21.77;66.36
78212;SHT31;67490;52.086;5.122;2023-07-29T05:56:18;21.80;66.21
78212;SHT31;67490;52.086;5.122;2023-07-29T05:59:03;21.94;66.13
78212;SHT31;67490;52.086;5.122;2023-07-29T06:01:47;22.06;65.68
78212;SHT31;67490;52.086;5.122;2023-07-29T06:04:32;22.04;65.52
78212;SHT31;67490;52.086;5.122;2023-07-29T06:07:17;22.06;65.85
78212;SHT31;67490;52.086;5.122;2023-07-29T06:10:01;22.04;65.95
78212;SHT31;67490;52.086;5.122;2023-07-29T06:12:46;22.16;65.40
78212;SHT31;67490;52.086;5.122;2023-07-29T06:15:30;22.25;65.49
78212;SHT31;67490;52.086;5.122;2023-07-29T06:18:15;22.01;65.85
78212;SHT31;67490;52.086;5.122;2023-07-29T06:21:00;22.04;66.04
78212;SHT31;67490;52.086;5.122;2023-07-29T06:23:45;22.22;65.84
78212;SHT31;67490;52.086;5.122;2023-07-29T06:26:29;22.43;65.31
78212;SHT31;67490;52.086;5.122;2023-07-29T06:29:13;22.68;64.70
78212;SHT31;67490;52.086;5.122;2023-07-29T06:31:58;22.85;64.30
78212;SHT31;67490;52.086;5.122;2023-07-29T06:34:42;23.06;63.60
78212;SHT31;67490;52.086;5.122;2023-07-29T06:37:28;22.77;64.13
78212;SHT31;67490;52.086;5.122;2023-07-29T06:40:13;22.68;64.48
78212;SHT31;67490;52.086;5.122;2023-07-29T06:42:57;22.69;64.76
78212;SHT31;67490;52.086;5.122;2023-07-29T06:45:42;22.68;65.09
78212;SHT31;67490;52.086;5.122;2023-07-29T06:48:26;22.79;64.65
78212;SHT31;67490;52.086;5.122;2023-07-29T06:51:10;22.85;64.68
78212;SHT31;67490;52.086;5.122;2023-07-29T06:53:56;22.76;64.73
78212;SHT31;67490;52.086;5.122;2023-07-29T06:56:41;22.76;64.77
78212;SHT31;67490;52.086;5.122;2023-07-29T06:59:26;22.72;65.00
78212;SHT31;67490;52.086;5.122;2023-07-29T07:02:10;22.64;65.11
78212;SHT31;67490;52.086;5.122;2023-07-29T07:04:55;22.56;65.52
78212;SHT31;67490;52.086;5.122;2023-07-29T07:07:40;22.34;65.74
78212;SHT31;67490;52.086;5.122;2023-07-29T07:10:25;22.30;66.37
78212;SHT31;67490;52.086;5.122;2023-07-29T07:13:10;22.24;66.67
78212;SHT31;67490;52.086;5.122;2023-07-29T07:15:55;22.28;66.83
78212;SHT31;67490;52.086;5.122;2023-07-29T07:18:39;22.38;66.47
78212;SHT31;67490;52.086;5.122;2023-07-29T07:21:24;22.55;66.23
78212;SHT31;67490;52.086;5.122;2023-07-29T07:24:08;22.65;65.71
78212;SHT31;67490;52.086;5.122;2023-07-29T07:26:54;22.79;65.44
78212;SHT31;67490;52.086;5.122;2023-07-29T07:29:39;23.05;64.86
78212;SHT31;67490;52.086;5.122;2023-07-29T07:32:23;23.36;64.26
78212;SHT31;67490;52.086;5.122;2023-07-29T07:35:08;23.75;62.78
78212;SHT31;67490;52.086;5.122;2023-07-29T07:37:52;23.94;62.20
78212;SHT31;67490;52.086;5.122;2023-07-29T07:40:37;23.81;62.40
78212;SHT31;67490;52.086;5.122;2023-07-29T07:43:23;23.71;62.86
78212;SHT31;67490;52.086;5.122;2023-07-29T07:46:08;23.92;62.37
78212;SHT31;67490;52.086;5.122;2023-07-29T07:48:52;23.86;62.34
78212;SHT31;67490;52.086;5.122;2023-07-29T07:51:36;23.81;62.47
78212;SHT31;67490;52.086;5.122;2023-07-29T07:54:20;23.77;62.16
78212;SHT31;67490;52.086;5.122;2023-07-29T07:57:05;23.55;63.26
78212;SHT31;67490;52.086;5.122;2023-07-29T07:59:51;23.85;62.57
78212;SHT31;67490;52.086;5.122;2023-07-29T08:02:36;23.81;62.50
78212;SHT31;67490;52.086;5.122;2023-07-29T08:05:21;23.75;62.69
78212;SHT31;67490;52.086;5.122;2023-07-29T08:08:05;23.64;63.00
78212;SHT31;67490;52.086;5.122;2023-07-29T08:10:49;23.61;63.14
78212;SHT31;67490;52.086;5.122;2023-07-29T08:13:34;23.55;63.11
78212;SHT31;67490;52.086;5.122;2023-07-29T08:16:20;23.58;63.32
78212;SHT31;67490;52.086;5.122;2023-07-29T08:19:04;23.53;62.95
78212;SHT31;67490;52.086;5.122;2023-07-29T08:21:49;23.54;63.22
78212;SHT31;67490;52.086;5.122;2023-07-29T08:24:33;23.49;63.10
78212;SHT31;67490;52.086;5.122;2023-07-29T08:27:18;23.33;63.50
78212;SHT31;67490;52.086;5.122;2023-07-29T08:30:03;23.44;63.18
78212;SHT31;67490;52.086;5.122;2023-07-29T08:32:49;23.50;62.92
78212;SHT31;67490;52.086;5.122;2023-07-29T08:35:34;23.53;62.78
78212;SHT31;67490;52.086;5.122;2023-07-29T08:38:18;23.51;63.28
78212;SHT31;67490;52.086;5.122;2023-07-29T08:41:10;23.58;63.44
78212;SHT31;67490;52.086;5.122;2023-07-29T08:44:02;23.49;63.74
78212;SHT31;67490;52.086;5.122;2023-07-29T08:46:50;23.49;63.39
78212;SHT31;67490;52.086;5.122;2023-07-29T08:49:38;24.06;62.59
78212;SHT31;67490;52.086;5.122;2023-07-29T08:52:23;24.67;60.07
78212;SHT31;67490;52.086;5.122;2023-07-29T08:55:09;24.73;60.09
78212;SHT31;67490;52.086;5.122;2023-07-29T08:57:54;24.39;60.44
78212;SHT31;67490;52.086;5.122;2023-07-29T09:00:39;24.26;60.44
78212;SHT31;67490;52.086;5.122;2023-07-29T09:03:24;24.19;60.56
78212;SHT31;67490;52.086;5.122;2023-07-29T09:06:11;24.08;60.13
78212;SHT31;67490;52.086;5.122;2023-07-29T09:08:56;24.08;60.62
78212;SHT31;67490;52.086;5.122;2023-07-29T09:11:40;23.95;61.17
78212;SHT31;67490;52.086;5.122;2023-07-29T09:14:24;23.79;62.72
78212;SHT31;67490;52.086;5.122;2023-07-29T09:17:09;23.88;62.46
78212;SHT31;67490;52.086;5.122;2023-07-29T09:19:54;23.95;62.19
78212;SHT31;67490;52.086;5.122;2023-07-29T09:22:40;23.85;62.01
78212;SHT31;67490;52.086;5.122;2023-07-29T09:25:25;23.70;62.53
78212;SHT31;67490;52.086;5.122;2023-07-29T09:28:11;23.65;62.89
78212;SHT31;67490;52.086;5.122;2023-07-29T09:30:56;23.50;64.92
78212;SHT31;67490;52.086;5.122;2023-07-29T09:33:40;23.23;66.80
78212;SHT31;67490;52.086;5.122;2023-07-29T09:36:26;23.10;68.92
78212;SHT31;67490;52.086;5.122;2023-07-29T09:39:12;22.64;70.30
78212;SHT31;67490;52.086;5.122;2023-07-29T09:41:59;22.72;70.98
78212;SHT31;67490;52.086;5.122;2023-07-29T09:44:43;22.61;70.49
78212;SHT31;67490;52.086;5.122;2023-07-29T09:47:27;22.69;71.32
78212;SHT31;67490;52.086;5.122;2023-07-29T09:50:13;22.82;70.43
78212;SHT31;67490;52.086;5.122;2023-07-29T09:52:58;22.91;70.37
78212;SHT31;67490;52.086;5.122;2023-07-29T09:55:48;22.86;70.04
78212;SHT31;67490;52.086;5.122;2023-07-29T09:58:34;22.96;69.53
78212;SHT31;67490;52.086;5.122;2023-07-29T10:01:20;23.13;69.29
78212;SHT31;67490;52.086;5.122;2023-07-29T10:04:05;23.19;68.94
78212;SHT31;67490;52.086;5.122;2023-07-29T10:06:51;23.19;68.94
78212;SHT31;67490;52.086;5.122;2023-07-29T10:09:37;23.16;68.56
78212;SHT31;67490;52.086;5.122;2023-07-29T10:12:25;23.19;69.05
78212;SHT31;67490;52.086;5.122;2023-07-29T10:15:09;23.19;68.87
78212;SHT31;67490;52.086;5.122;2023-07-29T10:17:54;22.95;69.71
78212;SHT31;67490;52.086;5.122;2023-07-29T10:20:41;23.10;69.70
78212;SHT31;67490;52.086;5.122;2023-07-29T10:23:28;23.05;70.36
78212;SHT31;67490;52.086;5.122;2023-07-29T10:26:19;23.06;70.43
78212;SHT31;67490;52.086;5.122;2023-07-29T10:29:07;23.03;70.47
78212;SHT31;67490;52.086;5.122;2023-07-29T10:31:54;23.03;70.47
78212;SHT31;67490;52.086;5.122;2023-07-29T10:34:42;22.98;69.19
78212;SHT31;67490;52.086;5.122;2023-07-29T10:37:27;22.79;70.14
78212;SHT31;67490;52.086;5.122;2023-07-29T10:40:11;22.96;70.66
78212;SHT31;67490;52.086;5.122;2023-07-29T10:43:00;23.26;71.18
78212;SHT31;67490;52.086;5.122;2023-07-29T10:45:50;23.40;69.15
78212;SHT31;67490;52.086;5.122;2023-07-29T10:48:41;23.36;69.32
78212;SHT31;67490;52.086;5.122;2023-07-29T10:51:28;23.33;68.64
78212;SHT31;67490;52.086;5.122;2023-07-29T10:54:19;23.05;69.92
78212;SHT31;67490;52.086;5.122;2023-07-29T10:57:04;23.06;69.47
78212;SHT31;67490;52.086;5.122;2023-07-29T10:59:54;22.83;69.73
78212;SHT31;67490;52.086;5.122;2023-07-29T11:02:41;22.89;69.67
78212;SHT31;67490;52.086;5.122;2023-07-29T11:05:25;22.93;69.52
78212;SHT31;67490;52.086;5.122;2023-07-29T11:08:22;22.86;69.73
78212;SHT31;67490;52.086;5.122;2023-07-29T11:11:08;22.77;69.89
78212;SHT31;67490;52.086;5.122;2023-07-29T11:13:56;22.59;70.13
78212;SHT31;67490;52.086;5.122;2023-07-29T11:16:41;22.43;70.63
78212;SHT31;67490;52.086;5.122;2023-07-29T11:19:27;22.21;70.51
78212;SHT31;67490;52.086;5.122;2023-07-29T11:22:12;22.24;71.57
78212;SHT31;67490;52.086;5.122;2023-07-29T11:24:57;22.28;71.12
78212;SHT31;67490;52.086;5.122;2023-07-29T11:27:42;22.34;71.49
78212;SHT31;67490;52.086;5.122;2023-07-29T11:30:27;22.49;70.85
78212;SHT31;67490;52.086;5.122;2023-07-29T11:33:12;22.56;71.01
78212;SHT31;67490;52.086;5.122;2023-07-29T11:35:58;22.58;70.92
78212;SHT31;67490;52.086;5.122;2023-07-29T11:38:42;22.69;71.15
78212;SHT31;67490;52.086;5.122;2023-07-29T11:41:27;22.82;70.79
78212;SHT31;67490;52.086;5.122;2023-07-29T11:44:16;22.98;71.40
78212;SHT31;67490;52.086;5.122;2023-07-29T11:47:01;23.22;71.18
78212;SHT31;67490;52.086;5.122;2023-07-29T11:49:46;23.51;70.66
78212;SHT31;67490;52.086;5.122;2023-07-29T11:52:33;23.63;69.72
78212;SHT31;67490;52.086;5.122;2023-07-29T11:55:18;23.78;71.05
78212;SHT31;67490;52.086;5.122;2023-07-29T11:58:04;23.98;70.02
78212;SHT31;67490;52.086;5.122;2023-07-29T12:00:48;24.08;69.25
78212;SHT31;67490;52.086;5.122;2023-07-29T12:03:33;24.19;69.44
78212;SHT31;67490;52.086;5.122;2023-07-29T12:06:17;24.16;68.09
78212;SHT31;67490;52.086;5.122;2023-07-29T12:09:04;24.12;68.93
78212;SHT31;67490;52.086;5.122;2023-07-29T12:11:49;24.05;67.74
78212;SHT31;67490;52.086;5.122;2023-07-29T12:14:34;24.01;67.09
78212;SHT31;67490;52.086;5.122;2023-07-29T12:17:18;23.89;66.47
78212;SHT31;67490;52.086;5.122;2023-07-29T12:20:03;23.89;66.99
78212;SHT31;67490;52.086;5.122;2023-07-29T12:22:53;23.97;67.05
78212;SHT31;67490;52.086;5.122;2023-07-29T12:25:39;24.02;66.89
78212;SHT31;67490;52.086;5.122;2023-07-29T12:28:24;24.23;67.05
78212;SHT31;67490;52.086;5.122;2023-07-29T12:31:09;24.13;66.17
78212;SHT31;67490;52.086;5.122;2023-07-29T12:33:56;24.15;65.72
78212;SHT31;67490;52.086;5.122;2023-07-29T12:36:42;24.23;65.85
78212;SHT31;67490;52.086;5.122;2023-07-29T12:39:28;24.30;65.28
78212;SHT31;67490;52.086;5.122;2023-07-29T12:42:14;24.43;65.10
78212;SHT31;67490;52.086;5.122;2023-07-29T12:44:58;24.42;65.00
78212;SHT31;67490;52.086;5.122;2023-07-29T12:47:42;24.28;65.10
78212;SHT31;67490;52.086;5.122;2023-07-29T12:50:26;24.29;64.98
78212;SHT31;67490;52.086;5.122;2023-07-29T12:53:11;24.26;64.89
78212;SHT31;67490;52.086;5.122;2023-07-29T12:55:56;24.28;64.61
78212;SHT31;67490;52.086;5.122;2023-07-29T12:58:41;24.16;64.22
78212;SHT31;67490;52.086;5.122;2023-07-29T13:01:26;24.01;64.84
78212;SHT31;67490;52.086;5.122;2023-07-29T13:04:11;24.09;65.12
78212;SHT31;67490;52.086;5.122;2023-07-29T13:06:55;24.25;65.06
78212;SHT31;67490;52.086;5.122;2023-07-29T13:09:40;24.25;64.93
78212;SHT31;67490;52.086;5.122;2023-07-29T13:12:24;24.39;64.13
78212;SHT31;67490;52.086;5.122;2023-07-29T13:15:10;24.43;64.63
78212;SHT31;67490;52.086;5.122;2023-07-29T13:17:54;24.66;64.07
78212;SHT31;67490;52.086;5.122;2023-07-29T13:20:38;24.66;63.69
78212;SHT31;67490;52.086;5.122;2023-07-29T13:23:24;24.70;63.46
78212;SHT31;67490;52.086;5.122;2023-07-29T13:26:08;24.64;63.26
78212;SHT31;67490;52.086;5.122;2023-07-29T13:28:52;24.59;61.68
78212;SHT31;67490;52.086;5.122;2023-07-29T13:31:38;24.76;62.64
78212;SHT31;67490;52.086;5.122;2023-07-29T13:34:23;24.84;62.60
78212;SHT31;67490;52.086;5.122;2023-07-29T13:37:08;24.84;61.43
78212;SHT31;67490;52.086;5.122;2023-07-29T13:39:52;24.86;61.47
78212;SHT31;67490;52.086;5.122;2023-07-29T13:42:36;24.97;61.16
78212;SHT31;67490;52.086;5.122;2023-07-29T13:45:21;24.87;61.27
78212;SHT31;67490;52.086;5.122;2023-07-29T13:48:07;25.04;60.98
78212;SHT31;67490;52.086;5.122;2023-07-29T13:50:51;25.06;60.36
78212;SHT31;67490;52.086;5.122;2023-07-29T13:53:36;24.97;60.76
78212;SHT31;67490;52.086;5.122;2023-07-29T13:56:20;25.12;60.26
78212;SHT31;67490;52.086;5.122;2023-07-29T13:59:04;25.34;60.16
78212;SHT31;67490;52.086;5.122;2023-07-29T14:01:48;25.22;59.17
78212;SHT31;67490;52.086;5.122;2023-07-29T14:04:34;25.27;59.75
78212;SHT31;67490;52.086;5.122;2023-07-29T14:07:18;25.39;59.68
78212;SHT31;67490;52.086;5.122;2023-07-29T14:10:03;25.21;59.75
78212;SHT31;67490;52.086;5.122;2023-07-29T14:12:48;25.35;60.09
78212;SHT31;67490;52.086;5.122;2023-07-29T14:15:32;25.58;58.75
78212;SHT31;67490;52.086;5.122;2023-07-29T14:18:16;25.55;57.19
78212;SHT31;67490;52.086;5.122;2023-07-29T14:21:02;25.61;56.19
78212;SHT31;67490;52.086;5.122;2023-07-29T14:23:46;25.43;55.51
78212;SHT31;67490;52.086;5.122;2023-07-29T14:26:31;25.41;55.25
78212;SHT31;67490;52.086;5.122;2023-07-29T14:29:15;25.46;55.74
78212;SHT31;67490;52.086;5.122;2023-07-29T14:31:59;25.52;55.98
78212;SHT31;67490;52.086;5.122;2023-07-29T14:34:43;25.42;55.15
78212;SHT31;67490;52.086;5.122;2023-07-29T14:37:29;25.42;55.41
78212;SHT31;67490;52.086;5.122;2023-07-29T14:40:13;25.45;54.41
78212;SHT31;67490;52.086;5.122;2023-07-29T14:42:57;25.48;55.24
78212;SHT31;67490;52.086;5.122;2023-07-29T14:45:42;25.61;55.13
78212;SHT31;67490;52.086;5.122;2023-07-29T14:48:26;25.63;55.03
78212;SHT31;67490;52.086;5.122;2023-07-29T14:51:10;25.55;54.53
78212;SHT31;67490;52.086;5.122;2023-07-29T14:53:56;25.69;54.90
78212;SHT31;67490;52.086;5.122;2023-07-29T14:56:41;25.82;53.72
78212;SHT31;67490;52.086;5.122;2023-07-29T14:59:25;25.97;53.48
78212;SHT31;67490;52.086;5.122;2023-07-29T15:02:09;25.89;53.07
78212;SHT31;67490;52.086;5.122;2023-07-29T15:04:54;25.72;53.40
78212;SHT31;67490;52.086;5.122;2023-07-29T15:07:38;25.69;53.22
78212;SHT31;67490;52.086;5.122;2023-07-29T15:10:24;25.59;53.66
78212;SHT31;67490;52.086;5.122;2023-07-29T15:13:08;25.66;53.71
78212;SHT31;67490;52.086;5.122;2023-07-29T15:15:52;25.57;53.64
78212;SHT31;67490;52.086;5.122;2023-07-29T15:18:37;25.65;54.40
78212;SHT31;67490;52.086;5.122;2023-07-29T15:21:21;25.58;54.05
78212;SHT31;67490;52.086;5.122;2023-07-29T15:24:06;25.66;53.84
78212;SHT31;67490;52.086;5.122;2023-07-29T15:26:51;25.55;53.35
78212;SHT31;67490;52.086;5.122;2023-07-29T15:29:36;25.46;53.10
78212;SHT31;67490;52.086;5.122;2023-07-29T15:32:20;25.43;53.55
78212;SHT31;67490;52.086;5.122;2023-07-29T15:35:05;25.52;53.97
78212;SHT31;67490;52.086;5.122;2023-07-29T15:37:50;25.63;54.06
78212;SHT31;67490;52.086;5.122;2023-07-29T15:40:34;25.65;53.39
78212;SHT31;67490;52.086;5.122;2023-07-29T15:43:20;25.61;53.07
78212;SHT31;67490;52.086;5.122;2023-07-29T15:46:05;25.51;53.84
78212;SHT31;67490;52.086;5.122;2023-07-29T15:48:49;25.55;53.75
78212;SHT31;67490;52.086;5.122;2023-07-29T15:51:34;25.46;53.95
78212;SHT31;67490;52.086;5.122;2023-07-29T15:54:18;25.29;54.90
78212;SHT31;67490;52.086;5.122;2023-07-29T15:57:02;25.22;55.06
78212;SHT31;67490;52.086;5.122;2023-07-29T15:59:48;25.39;55.23
78212;SHT31;67490;52.086;5.122;2023-07-29T16:02:32;25.43;55.33
78212;SHT31;67490;52.086;5.122;2023-07-29T16:05:17;25.57;55.36
78212;SHT31;67490;52.086;5.122;2023-07-29T16:08:01;25.59;55.57
78212;SHT31;67490;52.086;5.122;2023-07-29T16:10:46;25.62;55.26
78212;SHT31;67490;52.086;5.122;2023-07-29T16:13:30;25.61;56.08
78212;SHT31;67490;52.086;5.122;2023-07-29T16:16:16;25.76;55.45
78212;SHT31;67490;52.086;5.122;2023-07-29T16:19:00;25.88;55.36
78212;SHT31;67490;52.086;5.122;2023-07-29T16:21:45;25.85;55.60
78212;SHT31;67490;52.086;5.122;2023-07-29T16:24:29;25.76;55.97
78212;SHT31;67490;52.086;5.122;2023-07-29T16:27:14;25.86;56.26
78212;SHT31;67490;52.086;5.122;2023-07-29T16:29:58;25.76;56.16
78212;SHT31;67490;52.086;5.122;2023-07-29T16:32:45;25.72;56.04
78212;SHT31;67490;52.086;5.122;2023-07-29T16:35:29;25.59;56.13
78212;SHT31;67490;52.086;5.122;2023-07-29T16:38:13;25.48;56.39
78212;SHT31;67490;52.086;5.122;2023-07-29T16:40:57;25.55;56.70
78212;SHT31;67490;52.086;5.122;2023-07-29T16:43:42;25.63;56.55
78212;SHT31;67490;52.086;5.122;2023-07-29T16:46:26;25.68;56.91
78212;SHT31;67490;52.086;5.122;2023-07-29T16:49:12;25.65;56.90
78212;SHT31;67490;52.086;5.122;2023-07-29T16:51:56;25.73;56.99
78212;SHT31;67490;52.086;5.122;2023-07-29T16:54:41;25.78;57.03
78212;SHT31;67490;52.086;5.122;2023-07-29T16:57:25;25.69;57.02
78212;SHT31;67490;52.086;5.122;2023-07-29T17:00:10;25.63;56.90
78212;SHT31;67490;52.086;5.122;2023-07-29T17:02:54;25.59;57.30
78212;SHT31;67490;52.086;5.122;2023-07-29T17:05:40;25.61;56.96
78212;SHT31;67490;52.086;5.122;2023-07-29T17:08:24;25.58;57.58
78212;SHT31;67490;52.086;5.122;2023-07-29T17:11:09;25.48;57.76
78212;SHT31;67490;52.086;5.122;2023-07-29T17:13:53;25.29;58.35
78212;SHT31;67490;52.086;5.122;2023-07-29T17:16:37;25.24;58.69
78212;SHT31;67490;52.086;5.122;2023-07-29T17:19:22;25.27;58.90
78212;SHT31;67490;52.086;5.122;2023-07-29T17:22:08;25.32;58.89